Time;durP1;ratioP1;P1;durP2;ratioP2;P2;SDS_P1;SDS_P2;PMS_P1;PMS_P2;Temp;Humidity;BMP_temperature;BMP_pressure;BME280_temperature;BME280_humidity;BME280_pressure;Samples;Min_cycle;Max_cycle;Signal;HPM_P1;HPM_P2
2021/09/26 00:01:03;;;;;;;67.95;34.10;;;12.90;99.90;;;;;;5072185;28;20036;-70
2021/09/26 00:03:30;;;;;;;70.97;36.15;;;12.90;99.90;;;;;;5073263;28;20029;-69
2021/09/26 00:05:55;;;;;;;64.57;29.95;;;12.90;99.90;;;;;;5073307;28;20020;-70
2021/09/26 00:08:21;;;;;;;65.22;31.25;;;12.90;99.90;;;;;;5073288;28;20032;-69
2021/09/26 00:10:46;;;;;;;69.65;32.85;;;12.90;99.90;;;;;;5073260;28;20529;-69
2021/09/26 00:13:12;;;;;;;79.03;34.80;;;13.00;99.90;;;;;;5072942;28;20017;-69
2021/09/26 00:15:37;;;;;;;68.57;32.67;;;13.00;99.90;;;;;;5073189;28;20020;-68
2021/09/26 00:18:03;;;;;;;72.22;34.35;;;13.10;99.90;;;;;;5073173;28;20580;-69
2021/09/26 00:20:29;;;;;;;80.13;37.60;;;13.10;99.90;;;;;;5073151;28;20095;-69
2021/09/26 00:22:54;;;;;;;67.22;32.55;;;13.20;99.90;;;;;;5073226;28;20035;-69
2021/09/26 00:25:20;;;;;;;73.22;33.95;;;13.20;99.90;;;;;;5073315;28;20032;-69
2021/09/26 00:27:46;;;;;;;74.13;35.20;;;13.10;99.90;;;;;;5073367;28;20109;-69
2021/09/26 00:30:14;;;;;;;77.05;35.55;;;13.10;99.90;;;;;;5072787;28;20028;-68
2021/09/26 00:32:41;;;;;;;89.35;36.85;;;13.10;99.90;;;;;;5076581;28;20082;-69
2021/09/26 00:35:07;;;;;;;85.32;38.78;;;13.20;99.90;;;;;;5076364;28;20016;-69
2021/09/26 00:37:33;;;;;;;78.80;37.63;;;13.30;99.90;;;;;;5076591;28;20036;-69
2021/09/26 00:39:58;;;;;;;74.75;34.75;;;13.30;99.90;;;;;;5076543;28;20370;-69
2021/09/26 00:42:24;;;;;;;73.13;34.10;;;13.30;99.90;;;;;;5076798;28;20028;-69
2021/09/26 00:44:49;;;;;;;78.88;34.78;;;13.20;99.90;;;;;;5076391;28;20524;-69
2021/09/26 00:47:15;;;;;;;80.35;36.72;;;13.20;99.90;;;;;;5076671;28;20028;-70
2021/09/26 00:49:41;;;;;;;78.38;36.05;;;13.40;99.90;;;;;;5076399;28;20417;-69
2021/09/26 00:52:07;;;;;;;66.38;32.50;;;13.40;99.90;;;;;;5076622;28;20025;-69
2021/09/26 00:54:36;;;;;;;78.38;34.33;;;13.20;99.90;;;;;;5076583;28;20108;-69
2021/09/26 00:57:02;;;;;;;73.55;35.33;;;13.30;99.90;;;;;;5076253;28;20036;-68
2021/09/26 00:59:27;;;;;;;80.55;36.53;;;13.30;99.90;;;;;;5076474;28;20016;-69
2021/09/26 01:01:53;;;;;;;75.90;34.88;;;13.30;99.90;;;;;;5076438;28;20074;-69
2021/09/26 01:04:19;;;;;;;75.85;35.90;;;13.30;99.90;;;;;;5074778;28;20382;-68
2021/09/26 01:12:36;;;;;;;71.32;33.85;;;13.40;99.90;;;;;;5071701;28;20357;-68
2021/09/26 01:15:11;;;;;;;76.78;33.67;;;13.30;99.90;;;;;;5071333;28;20048;-69
2021/09/26 01:18:03;;;;;;;73.40;34.55;;;13.30;99.90;;;;;;5070971;28;20107;-69
2021/09/26 01:20:54;;;;;;;69.90;32.20;;;13.30;99.90;;;;;;5070670;28;20386;-69
2021/09/26 01:26:17;;;;;;;69.72;33.35;;;13.30;99.90;;;;;;5112225;27;20283;-70
2021/09/26 01:29:09;;;;;;;65.95;32.25;;;13.30;99.90;;;;;;5111658;28;20053;-70
2021/09/26 01:31:39;;;;;;;66.72;33.13;;;13.20;99.90;;;;;;5111373;28;20531;-70
2021/09/26 01:34:16;;;;;;;67.03;31.42;;;13.30;99.90;;;;;;5111856;28;20034;-69
2021/09/26 01:36:50;;;;;;;71.80;34.03;;;13.30;99.90;;;;;;5111443;28;20028;-69
2021/09/26 01:39:22;;;;;;;67.93;33.60;;;13.30;99.90;;;;;;5111469;28;20038;-69
2021/09/26 01:41:55;;;;;;;71.53;34.75;;;13.20;99.90;;;;;;5111458;28;20444;-69
2021/09/26 01:44:27;;;;;;;;;;;13.20;99.90;;;;;;5112048;28;20526;-69
2021/09/26 01:46:55;;;;;;;67.68;33.08;;;13.20;99.90;;;;;;5111587;28;19926;-69
2021/09/26 01:49:31;;;;;;;67.35;32.30;;;13.20;99.90;;;;;;5111277;28;20019;-69
2021/09/26 01:51:59;;;;;;;58.20;30.85;;;13.20;99.90;;;;;;5111256;28;20385;-69
2021/09/26 01:54:25;;;;;;;57.05;30.65;;;13.10;99.90;;;;;;5111492;28;20427;-70
2021/09/26 01:56:52;;;;;;;56.83;30.58;;;13.10;99.90;;;;;;5111398;28;20058;-69
2021/09/26 01:59:21;;;;;;;62.55;30.38;;;13.10;99.90;;;;;;5111386;28;20063;-69
2021/09/26 02:01:48;;;;;;;66.75;32.58;;;13.10;99.90;;;;;;5111036;28;20032;-70
2021/09/26 02:04:18;;;;;;;65.82;31.80;;;13.10;99.90;;;;;;5110796;28;20030;-69
2021/09/26 02:06:45;;;;;;;67.93;32.45;;;13.10;99.90;;;;;;5110939;28;20023;-69
2021/09/26 02:09:13;;;;;;;67.22;33.85;;;13.20;99.90;;;;;;5110910;28;20491;-69
2021/09/26 02:11:40;;;;;;;59.15;31.92;;;13.20;99.90;;;;;;5110875;28;20055;-69
2021/09/26 02:14:06;;;;;;;63.25;32.00;;;13.20;99.90;;;;;;5110751;28;20028;-69
2021/09/26 02:16:35;;;;;;;61.13;32.25;;;13.10;99.90;;;;;;5110988;28;20107;-69
2021/09/26 02:19:03;;;;;;;63.67;33.40;;;13.20;99.90;;;;;;5110969;28;20020;-69
2021/09/26 02:21:30;;;;;;;64.03;33.15;;;13.10;99.90;;;;;;5110498;28;20027;-69
2021/09/26 02:23:57;;;;;;;60.17;30.98;;;13.20;99.90;;;;;;5110188;28;20367;-68
2021/09/26 02:26:24;;;;;;;58.22;31.80;;;13.20;99.90;;;;;;5110444;28;20365;-68
2021/09/26 02:28:50;;;;;;;60.58;31.58;;;13.20;99.90;;;;;;5110507;28;20030;-69
2021/09/26 02:31:16;;;;;;;58.35;30.05;;;13.20;99.90;;;;;;5110689;28;20023;-69
2021/09/26 02:33:45;;;;;;;62.00;32.00;;;13.20;99.90;;;;;;5110636;28;20457;-69
2021/09/26 02:36:12;;;;;;;62.03;31.10;;;13.10;99.90;;;;;;5103111;28;20028;-69
2021/09/26 02:38:38;;;;;;;65.55;32.40;;;13.10;99.90;;;;;;5096803;28;20059;-69
2021/09/26 02:41:12;;;;;;;54.72;29.77;;;13.10;99.90;;;;;;5096977;28;20071;-69
2021/09/26 02:43:52;;;;;;;60.63;32.92;;;13.10;99.90;;;;;;5096608;28;20017;-69
2021/09/26 02:46:25;;;;;;;55.38;28.55;;;13.10;99.90;;;;;;5096867;28;20488;-68
2021/09/26 02:48:52;;;;;;;55.03;29.30;;;13.10;99.90;;;;;;5096541;28;20381;-69
2021/09/26 02:51:18;;;;;;;50.55;27.75;;;13.00;99.90;;;;;;5096468;28;20024;-68
2021/09/26 02:53:45;;;;;;;48.22;29.20;;;13.00;99.90;;;;;;5096719;28;20162;-69
2021/09/26 02:56:12;;;;;;;51.00;28.27;;;13.00;99.90;;;;;;5096707;28;20473;-69
2021/09/26 02:58:39;;;;;;;51.90;29.30;;;13.00;99.90;;;;;;5096670;28;20466;-68
2021/09/26 03:01:05;;;;;;;47.60;27.67;;;13.00;99.90;;;;;;5096305;28;20384;-69
2021/09/26 03:03:31;;;;;;;49.90;27.52;;;13.10;99.90;;;;;;5096247;28;20031;-68
2021/09/26 03:05:57;;;;;;;51.53;28.88;;;13.00;99.90;;;;;;5095897;28;20028;-68
2021/09/26 03:08:23;;;;;;;52.60;28.73;;;13.10;99.90;;;;;;5096164;28;20024;-68
2021/09/26 03:10:54;;;;;;;49.03;29.27;;;13.20;99.90;;;;;;5096359;28;20103;-68
2021/09/26 03:13:20;;;;;;;47.33;27.25;;;13.20;99.90;;;;;;5096058;28;20432;-68
2021/09/26 03:15:45;;;;;;;47.65;28.25;;;13.20;99.90;;;;;;5096294;28;20031;-68
2021/09/26 03:18:12;;;;;;;50.15;28.58;;;13.30;99.90;;;;;;5096261;28;20032;-70
2021/09/26 03:20:37;;;;;;;45.53;27.13;;;13.30;99.90;;;;;;5095877;28;20031;-69
2021/09/26 03:23:03;;;;;;;49.35;28.35;;;13.30;99.90;;;;;;5096034;28;20370;-69
2021/09/26 03:25:29;;;;;;;47.45;27.67;;;13.30;99.90;;;;;;5095400;28;20040;-69
2021/09/26 03:27:55;;;;;;;47.40;27.63;;;13.30;99.90;;;;;;5095805;28;20024;-70
2021/09/26 03:30:21;;;;;;;43.78;26.55;;;13.30;99.90;;;;;;5095737;28;20031;-69
2021/09/26 03:32:47;;;;;;;44.75;26.73;;;13.30;99.90;;;;;;5096018;28;20027;-69
2021/09/26 03:35:13;;;;;;;49.60;27.95;;;13.30;99.90;;;;;;5095681;28;20074;-69
2021/09/26 03:37:39;;;;;;;43.17;26.83;;;13.40;99.90;;;;;;5095611;28;20103;-70
2021/09/26 03:40:06;;;;;;;41.75;25.27;;;13.40;99.90;;;;;;5095599;28;20116;-69
2021/09/26 03:42:32;;;;;;;40.03;24.33;;;13.40;99.90;;;;;;5095276;28;20024;-69
2021/09/26 03:44:57;;;;;;;44.55;27.15;;;13.40;99.90;;;;;;5095438;28;20517;-69
2021/09/26 03:47:23;;;;;;;39.10;25.08;;;13.40;99.90;;;;;;5094809;28;20148;-69
2021/09/26 03:49:49;;;;;;;39.75;23.75;;;13.50;99.90;;;;;;5095665;28;20023;-70
2021/09/26 03:52:15;;;;;;;39.10;24.02;;;13.50;99.90;;;;;;5095657;28;20044;-70
2021/09/26 03:54:40;;;;;;;42.20;24.85;;;13.50;99.90;;;;;;5095632;28;20115;-69
2021/09/26 03:57:06;;;;;;;35.42;22.25;;;13.50;99.90;;;;;;5095551;28;20024;-70
2021/09/26 03:59:32;;;;;;;41.10;25.23;;;13.60;99.90;;;;;;5095184;28;20032;-69
2021/09/26 04:01:57;;;;;;;35.78;23.88;;;13.60;99.90;;;;;;5095443;28;20088;-69
2021/09/26 04:04:23;;;;;;;32.92;22.33;;;13.60;99.90;;;;;;5095304;28;20031;-69
2021/09/26 04:06:48;;;;;;;36.13;21.60;;;13.60;99.90;;;;;;5094771;28;20032;-69
2021/09/26 04:09:14;;;;;;;33.67;21.92;;;13.60;99.90;;;;;;5095022;28;20044;-70
2021/09/26 04:11:40;;;;;;;32.72;20.83;;;13.60;99.90;;;;;;5094969;28;20027;-69
2021/09/26 04:14:05;;;;;;;30.30;20.55;;;13.60;99.90;;;;;;5093757;28;20035;-69
2021/09/26 04:16:31;;;;;;;33.00;20.83;;;13.70;99.90;;;;;;5094878;28;20034;-70
2021/09/26 04:18:57;;;;;;;30.95;20.98;;;13.70;99.90;;;;;;5094863;28;20028;-69
2021/09/26 04:21:23;;;;;;;32.80;21.17;;;13.70;99.90;;;;;;5095059;28;20031;-69
2021/09/26 04:23:50;;;;;;;30.25;20.02;;;13.70;99.90;;;;;;5094697;28;20415;-69
2021/09/26 04:26:16;;;;;;;31.25;19.90;;;13.80;99.90;;;;;;5094746;28;20046;-70
2021/09/26 04:28:42;;;;;;;30.05;20.25;;;13.70;99.90;;;;;;5094929;28;20023;-69
2021/09/26 04:31:08;;;;;;;28.35;19.75;;;13.70;99.90;;;;;;5094907;28;20024;-69
2021/09/26 04:33:34;;;;;;;28.55;19.77;;;13.70;99.90;;;;;;5094872;28;20035;-69
2021/09/26 04:36:00;;;;;;;26.63;19.25;;;13.70;99.90;;;;;;5094804;28;20103;-70
2021/09/26 04:38:25;;;;;;;26.63;18.52;;;13.80;99.90;;;;;;5094482;28;20511;-70
2021/09/26 04:40:51;;;;;;;28.10;18.73;;;13.80;99.90;;;;;;5093288;28;20028;-70
2021/09/26 04:43:16;;;;;;;27.80;19.00;;;13.80;99.90;;;;;;5094424;28;20028;-69
2021/09/26 04:45:42;;;;;;;29.80;19.50;;;13.80;99.90;;;;;;5094296;28;20028;-69
2021/09/26 04:48:08;;;;;;;28.20;18.63;;;13.80;99.90;;;;;;5094630;28;20432;-69
2021/09/26 04:50:34;;;;;;;25.83;18.13;;;13.80;99.90;;;;;;5094578;28;20020;-69
2021/09/26 04:52:59;;;;;;;26.25;17.13;;;13.80;99.90;;;;;;5094554;28;20028;-69
2021/09/26 04:55:26;;;;;;;25.45;18.42;;;13.80;99.90;;;;;;5094466;28;20038;-69
2021/09/26 04:57:54;;;;;;;25.08;17.30;;;13.80;99.90;;;;;;5093944;28;20016;-69
2021/09/26 05:00:20;;;;;;;27.08;17.25;;;13.80;99.90;;;;;;5094184;28;20374;-69
2021/09/26 05:02:45;;;;;;;29.55;18.48;;;13.80;99.90;;;;;;5094388;28;20035;-69
2021/09/26 05:05:11;;;;;;;25.45;17.92;;;13.80;99.90;;;;;;5093989;28;20024;-69
2021/09/26 05:07:37;;;;;;;27.05;17.92;;;13.80;99.90;;;;;;5093166;28;20026;-69
2021/09/26 05:10:04;;;;;;;23.90;16.60;;;13.80;99.90;;;;;;5094318;28;20077;-69
2021/09/26 05:12:29;;;;;;;26.05;17.75;;;13.70;99.90;;;;;;5094292;28;20078;-69
2021/09/26 05:15:01;;;;;;;28.88;17.83;;;13.70;99.90;;;;;;5093997;28;20028;-70
2021/09/26 05:17:26;;;;;;;26.80;17.10;;;13.80;99.90;;;;;;5093107;28;20347;-70
2021/09/26 05:19:52;;;;;;;25.98;17.60;;;13.80;99.90;;;;;;5092434;28;20085;-69
2021/09/26 05:22:17;;;;;;;24.35;16.75;;;13.80;99.90;;;;;;5093900;28;20059;-70
2021/09/26 05:24:43;;;;;;;25.30;17.75;;;13.80;99.90;;;;;;5093630;28;20123;-69
2021/09/26 05:27:08;;;;;;;25.88;17.75;;;13.80;99.90;;;;;;5094110;28;20024;-68
2021/09/26 05:29:34;;;;;;;22.90;15.75;;;13.90;99.90;;;;;;5093860;28;20032;-70
2021/09/26 05:31:59;;;;;;;24.67;16.77;;;13.90;99.90;;;;;;5093830;28;20032;-70
2021/09/26 05:34:25;;;;;;;28.15;17.98;;;13.90;99.90;;;;;;5094101;28;20031;-69
2021/09/26 05:36:51;;;;;;;23.92;16.65;;;13.90;99.90;;;;;;5094063;28;20028;-70
2021/09/26 05:39:18;;;;;;;23.63;17.63;;;14.00;99.90;;;;;;5093782;28;20028;-70
2021/09/26 05:41:44;;;;;;;20.95;16.10;;;14.00;99.90;;;;;;5092178;28;20027;-70
2021/09/26 05:44:09;;;;;;;19.45;14.25;;;14.00;99.90;;;;;;5093609;28;20036;-70
2021/09/26 05:46:36;;;;;;;20.88;16.13;;;14.10;99.90;;;;;;5093986;28;20024;-69
2021/09/26 05:49:02;;;;;;;21.77;16.25;;;14.10;99.90;;;;;;5093644;28;20012;-69
2021/09/26 05:51:27;;;;;;;22.25;15.60;;;14.20;99.90;;;;;;5093925;28;20024;-69
2021/09/26 05:53:53;;;;;;;23.13;15.13;;;14.20;99.90;;;;;;5093594;28;20028;-70
2021/09/26 05:56:18;;;;;;;20.63;14.98;;;14.20;99.90;;;;;;5093598;28;20051;-69
2021/09/26 05:58:44;;;;;;;21.30;15.18;;;14.20;99.90;;;;;;5093546;28;20052;-69
2021/09/26 06:01:10;;;;;;;21.02;13.98;;;14.20;99.90;;;;;;5092399;28;20107;-69
2021/09/26 06:03:35;;;;;;;21.50;15.50;;;14.30;99.90;;;;;;5093535;28;20020;-69
2021/09/26 06:06:01;;;;;;;23.33;16.00;;;14.40;99.90;;;;;;5093614;28;20020;-70
2021/09/26 06:08:26;;;;;;;21.63;15.63;;;14.40;99.90;;;;;;5092344;28;20020;-70
2021/09/26 06:10:54;;;;;;;22.90;15.10;;;14.60;99.90;;;;;;5094180;28;20047;-69
2021/09/26 06:13:20;;;;;;;19.70;14.70;;;14.70;99.90;;;;;;5097267;28;20035;-70
2021/09/26 06:15:45;;;;;;;19.55;13.93;;;14.90;99.90;;;;;;5097518;28;20028;-71
2021/09/26 06:18:11;;;;;;;17.30;13.38;;;15.20;99.90;;;;;;5097472;28;20457;-70
2021/09/26 06:20:36;;;;;;;16.65;12.45;;;15.90;99.90;;;;;;5097408;28;20032;-69
2021/09/26 06:23:02;;;;;;;13.95;11.43;;;16.80;99.90;;;;;;5097121;28;20078;-69
2021/09/26 06:25:28;;;;;;;14.93;11.60;;;18.00;99.90;;;;;;5095336;28;20039;-69
2021/09/26 06:27:56;;;;;;;15.40;11.00;;;18.60;99.90;;;;;;5097290;28;20078;-69
2021/09/26 06:30:22;;;;;;;12.55;10.88;;;19.20;99.90;;;;;;5096969;28;20016;-69
2021/09/26 06:32:47;;;;;;;10.98;9.82;;;19.10;99.90;;;;;;5097234;28;20020;-70
2021/09/26 06:35:13;;;;;;;13.25;11.07;;;18.90;99.90;;;;;;5097163;28;20354;-69
2021/09/26 06:37:39;;;;;;;11.60;10.00;;;19.10;99.90;;;;;;5097102;28;20028;-69
2021/09/26 06:40:06;;;;;;;14.15;10.52;;;18.90;99.90;;;;;;5096784;28;20032;-69
2021/09/26 06:42:32;;;;;;;13.65;11.50;;;18.40;99.90;;;;;;5095156;28;20069;-69
2021/09/26 06:44:58;;;;;;;13.25;10.70;;;18.10;99.90;;;;;;5095733;28;20024;-69
2021/09/26 06:47:24;;;;;;;14.77;10.88;;;18.30;99.90;;;;;;5095113;28;20118;-70
2021/09/26 06:49:49;;;;;;;12.20;10.38;;;18.70;99.90;;;;;;5096559;28;20051;-69
2021/09/26 06:52:15;;;;;;;12.40;9.60;;;18.50;99.90;;;;;;5096542;28;20095;-69
2021/09/26 06:54:42;;;;;;;13.35;10.75;;;18.40;99.90;;;;;;5096780;28;20466;-69
2021/09/26 06:57:08;;;;;;;15.98;12.18;;;18.10;99.90;;;;;;5096706;28;20043;-69
2021/09/26 06:59:33;;;;;;;17.02;12.25;;;17.70;99.90;;;;;;5094870;28;20088;-69
2021/09/26 07:01:59;;;;;;;12.63;11.32;;;17.50;99.90;;;;;;5096624;28;20099;-68
2021/09/26 07:04:25;;;;;;;12.75;11.25;;;17.50;99.90;;;;;;5096263;28;20028;-69
2021/09/26 07:06:51;;;;;;;13.52;11.32;;;17.40;99.90;;;;;;5096270;28;20069;-69
2021/09/26 07:09:17;;;;;;;15.98;11.32;;;17.50;99.90;;;;;;5094695;28;20423;-70
2021/09/26 07:11:43;;;;;;;16.95;12.20;;;17.50;99.90;;;;;;5096462;28;20055;-70
2021/09/26 07:14:09;;;;;;;13.75;10.60;;;18.10;99.90;;;;;;5096152;28;20397;-70
2021/09/26 07:16:34;;;;;;;14.85;10.95;;;19.10;99.90;;;;;;5096329;28;20023;-69
2021/09/26 07:19:00;;;;;;;14.80;10.18;;;19.90;99.90;;;;;;5096291;28;20043;-69
2021/09/26 07:21:26;;;;;;;13.27;10.73;;;19.50;99.90;;;;;;5095890;28;20028;-69
2021/09/26 07:23:51;;;;;;;14.55;10.10;;;18.90;99.90;;;;;;5095553;28;20131;-70
2021/09/26 07:26:17;;;;;;;17.02;10.20;;;18.90;99.90;;;;;;5095908;28;20020;-70
2021/09/26 07:28:43;;;;;;;13.30;9.82;;;18.60;99.90;;;;;;5096079;28;20027;-70
2021/09/26 07:31:09;;;;;;;13.27;10.20;;;18.70;99.90;;;;;;5096111;28;20020;-70
2021/09/26 07:33:34;;;;;;;12.23;10.27;;;18.70;99.90;;;;;;5095740;28;20016;-70
2021/09/26 07:36:00;;;;;;;14.40;10.45;;;18.40;99.90;;;;;;5095677;28;20036;-70
2021/09/26 07:38:26;;;;;;;11.63;9.98;;;18.60;99.90;;;;;;5095671;28;20031;-69
2021/09/26 07:40:52;;;;;;;10.88;9.10;;;18.60;99.90;;;;;;5094889;28;20028;-70
2021/09/26 07:43:17;;;;;;;12.43;9.75;;;18.80;99.90;;;;;;5095574;28;20431;-70
2021/09/26 07:45:43;;;;;;;13.60;10.18;;;18.60;99.90;;;;;;5095694;28;20035;-69
2021/09/26 07:48:08;;;;;;;11.50;9.68;;;18.40;99.90;;;;;;5095206;28;20106;-70
2021/09/26 07:50:34;;;;;;;12.43;9.52;;;18.20;99.90;;;;;;5095434;28;20020;-69
2021/09/26 07:53:00;;;;;;;12.48;9.88;;;18.20;99.90;;;;;;5095355;28;20070;-70
2021/09/26 07:55:25;;;;;;;12.63;9.80;;;18.30;99.90;;;;;;5095579;28;20039;-69
2021/09/26 07:57:51;;;;;;;11.45;10.23;;;18.50;99.90;;;;;;5095317;28;20040;-70
2021/09/26 08:00:18;;;;;;;14.18;9.95;;;18.50;99.90;;;;;;5095489;28;20032;-69
2021/09/26 08:02:44;;;;;;;12.48;9.32;;;18.70;99.90;;;;;;5095399;28;20529;-70
2021/09/26 08:05:10;;;;;;;13.23;9.77;;;18.90;99.90;;;;;;5095031;28;20115;-70
2021/09/26 08:07:36;;;;;;;11.77;9.77;;;19.20;99.90;;;;;;5094199;28;20377;-70
2021/09/26 08:10:04;;;;;;;12.00;9.88;;;19.50;99.90;;;;;;5095249;28;20470;-70
2021/09/26 08:12:30;;;;;;;14.45;9.00;;;20.30;99.90;;;;;;5094962;28;20047;-70
2021/09/26 08:14:55;;;;;;;13.13;8.60;;;21.30;99.90;;;;;;5094900;28;20461;-70
2021/09/26 08:17:21;;;;;;;11.30;8.52;;;22.00;99.90;;;;;;5094891;28;20035;-70
2021/09/26 08:19:47;;;;;;;11.13;9.15;;;22.70;99.90;;;;;;5095138;28;20040;-70
2021/09/26 08:22:12;;;;;;;9.73;8.27;;;23.80;99.90;;;;;;5095081;28;20036;-70
2021/09/26 08:24:38;;;;;;;11.43;7.65;;;23.70;99.90;;;;;;5094276;28;20044;-70
2021/09/26 08:27:04;;;;;;;9.88;7.80;;;23.90;99.90;;;;;;5094720;28;20069;-70
2021/09/26 08:29:30;;;;;;;12.07;7.78;;;24.20;99.90;;;;;;5094724;28;20020;-70
2021/09/26 08:31:56;;;;;;;10.32;7.97;;;25.00;99.90;;;;;;5094946;28;20024;-69
2021/09/26 08:34:22;;;;;;;9.48;8.18;;;25.50;99.90;;;;;;5094100;28;20024;-70
2021/09/26 08:36:48;;;;;;;8.73;7.70;;;24.60;99.90;;;;;;5094753;28;20042;-70
2021/09/26 08:39:14;;;;;;;9.32;8.15;;;24.30;99.90;;;;;;5094128;28;20078;-69
2021/09/26 08:41:39;;;;;;;9.40;8.32;;;24.50;99.90;;;;;;5094429;28;20039;-69
2021/09/26 08:44:05;;;;;;;9.63;8.30;;;24.60;99.90;;;;;;5094619;28;20369;-69
2021/09/26 08:46:32;;;;;;;9.63;8.70;;;24.60;99.90;;;;;;5094420;28;20012;-69
2021/09/26 08:48:57;;;;;;;9.32;8.35;;;24.50;99.90;;;;;;5094346;28;20024;-70
2021/09/26 08:51:24;;;;;;;13.18;8.93;;;24.90;99.90;;;;;;5094283;28;20077;-69
2021/09/26 08:53:50;;;;;;;9.18;8.18;;;25.40;99.90;;;;;;5094217;28;20027;-69
2021/09/26 08:56:17;;;;;;;12.85;9.23;;;25.60;99.90;;;;;;5094541;28;20027;-68
2021/09/26 08:58:43;;;;;;;11.68;8.63;;;25.50;99.90;;;;;;5094166;28;20100;-69
2021/09/26 09:01:08;;;;;;;10.27;8.10;;;25.50;99.90;;;;;;5094438;28;20070;-69
2021/09/26 09:03:34;;;;;;;9.73;8.63;;;25.70;99.90;;;;;;5075695;28;20116;-71
2021/09/26 09:06:00;;;;;;;11.50;9.00;;;25.70;99.90;;;;;;5094266;28;20024;-69
2021/09/26 09:08:25;;;;;;;11.15;8.57;;;24.90;99.90;;;;;;5093749;28;20020;-69
2021/09/26 09:11:00;;;;;;;12.05;8.77;;;24.00;99.90;;;;;;5094028;28;20081;-69
2021/09/26 09:13:31;;;;;;;9.98;8.30;;;23.80;99.90;;;;;;5094022;28;20044;-69
2021/09/26 09:16:00;;;;;;;9.40;8.15;;;24.20;99.90;;;;;;5094203;28;20016;-69
2021/09/26 09:18:50;;;;;;;9.07;7.55;;;24.60;99.90;;;;;;5093901;28;20428;-70
2021/09/26 09:24:25;;;;;;;8.95;8.05;;;24.90;99.90;;;;;;5091884;28;20781;-70
2021/09/26 09:26:52;;;;;;;9.93;7.60;;;25.00;99.90;;;;;;5091596;28;20031;-70
2021/09/26 09:29:19;;;;;;;9.27;7.55;;;25.60;99.90;;;;;;5091225;28;20507;-70
2021/09/26 09:31:51;;;;;;;9.98;8.25;;;25.30;99.90;;;;;;5091506;28;20039;-71
2021/09/26 09:34:35;;;;;;;9.17;7.60;;;25.50;99.90;;;;;;5090904;28;20074;-70
2021/09/26 09:40:15;;;;;;;8.90;7.70;;;26.50;99.90;;;;;;5112303;27;20404;-70
2021/09/26 09:42:56;;;;;;;8.75;7.53;;;25.50;99.90;;;;;;5111619;28;20020;-69
2021/09/26 09:45:24;;;;;;;10.30;7.60;;;25.30;99.90;;;;;;5111548;28;20528;-69
2021/09/26 09:48:10;;;;;;;9.15;8.00;;;25.20;99.90;;;;;;5111840;28;20069;-70
2021/09/26 09:51:00;;;;;;;10.35;7.75;;;25.50;99.90;;;;;;5111740;28;20026;-71
2021/09/26 09:53:30;;;;;;;10.77;8.30;;;25.50;99.90;;;;;;5111081;28;20103;-70
2021/09/26 09:56:21;;;;;;;10.15;7.93;;;25.20;99.90;;;;;;5111673;28;20024;-70
2021/09/26 09:58:49;;;;;;;8.30;7.43;;;25.40;99.90;;;;;;5111429;28;20472;-70
2021/09/26 10:01:22;;;;;;;11.32;7.90;;;25.30;99.90;;;;;;5111534;28;20458;-70
2021/09/26 10:03:51;;;;;;;11.07;7.18;;;25.60;99.90;;;;;;5111250;28;20032;-70
2021/09/26 10:06:40;;;;;;;12.43;7.60;;;26.10;99.90;;;;;;5111491;28;20027;-70
2021/09/26 10:09:23;;;;;;;10.02;7.93;;;26.10;99.90;;;;;;5110810;28;20051;-70
2021/09/26 10:11:59;;;;;;;13.23;7.43;;;25.80;99.90;;;;;;5111379;28;20016;-70
2021/09/26 10:14:28;;;;;;;9.02;8.05;;;26.20;99.90;;;;;;5110723;28;20469;-69
2021/09/26 10:16:56;;;;;;;7.95;7.15;;;25.90;99.90;;;;;;5111278;28;20028;-70
2021/09/26 10:19:24;;;;;;;10.57;8.23;;;26.40;99.90;;;;;;5109353;28;20405;-69
2021/09/26 10:21:53;;;;;;;13.27;8.23;;;26.30;99.90;;;;;;5111118;28;20027;-69
2021/09/26 10:24:22;;;;;;;12.73;8.43;;;26.30;99.90;;;;;;5111125;28;20045;-69
2021/09/26 10:26:48;;;;;;;11.45;8.13;;;26.20;99.90;;;;;;5110837;28;20047;-70
2021/09/26 10:29:17;;;;;;;9.75;8.25;;;26.20;99.90;;;;;;5111033;28;20051;-69
2021/09/26 10:31:46;;;;;;;10.98;8.38;;;26.30;99.90;;;;;;5092416;28;20028;-69
2021/09/26 10:34:12;;;;;;;12.20;8.65;;;26.60;99.90;;;;;;5109190;28;20468;-69
2021/09/26 10:36:41;;;;;;;11.45;8.40;;;26.60;99.90;;;;;;5110891;28;20050;-69
2021/09/26 10:39:08;;;;;;;11.18;8.20;;;26.40;99.90;;;;;;5110122;28;20047;-69
2021/09/26 10:41:36;;;;;;;11.20;8.52;;;26.40;99.90;;;;;;5092179;28;20023;-69
2021/09/26 10:44:23;;;;;;;11.60;9.13;;;25.70;99.90;;;;;;5110466;28;20043;-69
2021/09/26 10:47:08;;;;;;;10.20;8.48;;;25.90;99.90;;;;;;5110158;28;20019;-69
2021/09/26 10:49:38;;;;;;;10.07;8.60;;;25.90;99.90;;;;;;5106175;28;20028;-68
2021/09/26 10:52:24;;;;;;;10.80;8.60;;;26.10;99.90;;;;;;5095116;28;20469;-69
2021/09/26 10:54:50;;;;;;;11.50;8.38;;;26.40;99.90;;;;;;5097031;28;20085;-69
2021/09/26 10:57:19;;;;;;;11.52;8.32;;;26.90;99.90;;;;;;5095496;28;20051;-69
2021/09/26 10:59:49;;;;;;;9.95;8.50;;;26.40;99.90;;;;;;5096802;28;20023;-68
2021/09/26 11:05:04;;;;;;;12.45;8.65;;;26.80;99.90;;;;;;5112044;27;20566;-70
2021/09/26 11:07:33;;;;;;;11.48;8.30;;;26.80;99.90;;;;;;5111846;28;20111;-70
2021/09/26 11:10:03;;;;;;;11.05;8.82;;;26.30;99.90;;;;;;5110798;28;20449;-70
2021/09/26 11:12:40;;;;;;;11.70;8.95;;;26.00;99.90;;;;;;5111522;28;20031;-70
2021/09/26 11:15:09;;;;;;;13.90;10.35;;;25.80;99.90;;;;;;5111780;28;20106;-70
2021/09/26 11:23:10;;;;;;;11.35;9.40;;;25.20;99.90;;;;;;5112155;27;20776;-72
2021/09/26 11:26:00;;;;;;;13.63;9.68;;;25.30;99.90;;;;;;5111573;28;20024;-71
2021/09/26 11:28:29;;;;;;;10.32;9.30;;;25.60;99.90;;;;;;5111563;28;20016;-71
2021/09/26 11:30:56;;;;;;;11.48;9.13;;;26.00;99.90;;;;;;5111746;28;20031;-71
2021/09/26 11:33:22;;;;;;;12.18;9.95;;;26.10;99.90;;;;;;5111513;28;20023;-70
2021/09/26 11:35:48;;;;;;;11.32;8.18;;;26.10;99.90;;;;;;5111709;28;20012;-70
2021/09/26 11:38:19;;;;;;;13.55;8.60;;;26.20;99.90;;;;;;5111696;28;20028;-70
2021/09/26 11:40:53;;;;;;;12.13;8.38;;;25.70;99.90;;;;;;5111308;28;20027;-70
2021/09/26 11:43:24;;;;;;;10.43;8.00;;;25.50;99.90;;;;;;5111613;28;20027;-70
2021/09/26 11:45:51;;;;;;;9.02;7.78;;;25.30;99.90;;;;;;5111580;28;20012;-70
2021/09/26 11:48:17;;;;;;;8.88;7.80;;;25.10;99.90;;;;;;5110037;28;20047;-71
2021/09/26 11:50:45;;;;;;;11.68;8.10;;;25.00;99.90;;;;;;5111134;28;20038;-70
2021/09/26 11:53:14;;;;;;;8.40;7.15;;;24.90;99.90;;;;;;5111124;28;20012;-69
2021/09/26 11:55:40;;;;;;;14.35;8.43;;;24.90;99.90;;;;;;5111362;28;20023;-71
2021/09/26 11:58:10;;;;;;;9.80;8.13;;;24.90;99.90;;;;;;5110988;28;20016;-70
2021/09/26 12:00:38;;;;;;;12.98;8.27;;;24.80;99.90;;;;;;5092475;28;20024;-71
2021/09/26 12:03:24;;;;;;;10.73;8.07;;;24.80;99.90;;;;;;5110894;28;20016;-69
2021/09/26 12:05:51;;;;;;;9.20;7.43;;;24.70;99.90;;;;;;5111150;28;20024;-69
2021/09/26 12:08:17;;;;;;;9.10;6.88;;;24.40;99.90;;;;;;5109320;28;20020;-70
2021/09/26 12:10:45;;;;;;;8.43;6.65;;;24.50;99.90;;;;;;5110751;28;20028;-70
2021/09/26 12:13:15;;;;;;;9.48;6.18;;;24.50;99.90;;;;;;5109888;28;20027;-69
2021/09/26 12:15:41;;;;;;;8.95;6.18;;;24.70;99.90;;;;;;5110478;28;20073;-70
2021/09/26 12:18:07;;;;;;;7.55;5.82;;;25.00;99.90;;;;;;5110548;28;20028;-69
2021/09/26 12:20:33;;;;;;;6.93;5.38;;;25.00;99.90;;;;;;5110636;28;20024;-70
2021/09/26 12:23:00;;;;;;;9.02;5.47;;;25.00;99.90;;;;;;5110043;28;20055;-69
2021/09/26 12:25:34;;;;;;;7.93;6.10;;;25.30;99.90;;;;;;5110809;28;20432;-70
2021/09/26 12:28:08;;;;;;;8.18;5.50;;;25.20;99.90;;;;;;5110501;28;20024;-70
2021/09/26 12:33:25;;;;;;;7.38;5.82;;;25.40;99.90;;;;;;5115850;27;1141010;-70
2021/09/26 12:35:58;;;;;;;7.38;4.97;;;25.30;99.90;;;;;;5132119;27;20030;-70
2021/09/26 12:38:26;;;;;;;;;;;25.70;99.90;;;;;;5132566;27;20457;-71
2021/09/26 12:43:49;;;;;;;6.57;4.53;;;25.70;99.90;;;;;;5112248;27;20355;-70
2021/09/26 12:46:17;;;;;;;7.22;4.50;;;25.80;99.90;;;;;;5111909;28;20059;-70
2021/09/26 12:48:46;;;;;;;7.15;4.40;;;25.70;99.90;;;;;;5111578;28;20030;-68
2021/09/26 12:51:17;;;;;;;7.68;4.28;;;25.50;99.90;;;;;;5111533;28;20023;-69
2021/09/26 12:53:46;;;;;;;4.82;3.47;;;25.80;99.90;;;;;;5111771;28;20046;-68
2021/09/26 12:56:19;;;;;;;7.45;4.18;;;25.90;99.90;;;;;;5111417;28;20020;-70
2021/09/26 12:58:47;;;;;;;8.02;4.32;;;25.90;99.90;;;;;;5111626;28;20141;-70
2021/09/26 13:01:24;;;;;;;5.80;3.63;;;25.70;99.90;;;;;;5111294;28;20026;-69
2021/09/26 13:03:57;;;;;;;7.25;3.90;;;25.70;99.90;;;;;;5111623;28;20073;-70
2021/09/26 13:06:24;;;;;;;;;;;25.70;99.90;;;;;;5111440;28;20026;-70